sensor_id;sensor_type;location;lat;lon;timestamp;P1;durP1;ratioP1;P2;durP2;ratioP2
84672;SDS011;74899;42.256;23.284;2024-01-15T00:00:45;29.08;;;13.15;;
84672;SDS011;74899;42.256;23.284;2024-01-15T00:03:12;20.15;;;10.93;;
84672;SDS011;74899;42.256;23.284;2024-01-15T00:05:39;26.95;;;11.55;;
84672;SDS011;74899;42.256;23.284;2024-01-15T00:08:07;19.00;;;9.88;;
84672;SDS011;74899;42.256;23.284;2024-01-15T00:10:33;26.00;;;12.05;;
84672;SDS011;74899;42.256;23.284;2024-01-15T00:12:59;17.35;;;11.23;;
84672;SDS011;74899;42.256;23.284;2024-01-15T00:15:25;15.27;;;8.35;;
84672;SDS011;74899;42.256;23.284;2024-01-15T00:17:53;39.80;;;15.30;;
84672;SDS011;74899;42.256;23.284;2024-01-15T00:20:20;15.52;;;9.02;;
84672;SDS011;74899;42.256;23.284;2024-01-15T00:22:47;8.48;;;5.00;;
84672;SDS011;74899;42.256;23.284;2024-01-15T00:25:16;11.93;;;5.88;;
84672;SDS011;74899;42.256;23.284;2024-01-15T00:27:43;13.90;;;6.47;;
84672;SDS011;74899;42.256;23.284;2024-01-15T00:30:10;31.90;;;14.48;;
84672;SDS011;74899;42.256;23.284;2024-01-15T00:32:40;7.10;;;5.68;;
84672;SDS011;74899;42.256;23.284;2024-01-15T00:35:07;7.53;;;4.88;;
84672;SDS011;74899;42.256;23.284;2024-01-15T00:37:35;7.70;;;6.72;;
84672;SDS011;74899;42.256;23.284;2024-01-15T00:40:01;6.72;;;5.35;;
84672;SDS011;74899;42.256;23.284;2024-01-15T00:42:28;5.18;;;4.68;;
84672;SDS011;74899;42.256;23.284;2024-01-15T00:44:54;4.40;;;4.03;;
84672;SDS011;74899;42.256;23.284;2024-01-15T00:47:20;7.82;;;4.25;;
84672;SDS011;74899;42.256;23.284;2024-01-15T00:49:47;11.38;;;5.22;;
84672;SDS011;74899;42.256;23.284;2024-01-15T00:52:13;18.75;;;6.00;;
84672;SDS011;74899;42.256;23.284;2024-01-15T00:54:40;22.85;;;13.05;;
84672;SDS011;74899;42.256;23.284;2024-01-15T00:57:06;20.38;;;11.18;;
84672;SDS011;74899;42.256;23.284;2024-01-15T00:59:32;4.45;;;4.03;;
84672;SDS011;74899;42.256;23.284;2024-01-15T01:02:05;2.58;;;2.30;;
84672;SDS011;74899;42.256;23.284;2024-01-15T01:04:31;6.25;;;4.85;;
84672;SDS011;74899;42.256;23.284;2024-01-15T01:06:58;3.90;;;3.53;;
84672;SDS011;74899;42.256;23.284;2024-01-15T01:09:24;4.90;;;3.35;;
84672;SDS011;74899;42.256;23.284;2024-01-15T01:11:52;9.18;;;5.32;;
84672;SDS011;74899;42.256;23.284;2024-01-15T01:14:18;9.65;;;4.57;;
84672;SDS011;74899;42.256;23.284;2024-01-15T01:16:44;2.58;;;2.28;;
84672;SDS011;74899;42.256;23.284;2024-01-15T01:19:12;1.60;;;1.02;;
84672;SDS011;74899;42.256;23.284;2024-01-15T01:21:40;1.50;;;1.20;;
84672;SDS011;74899;42.256;23.284;2024-01-15T01:24:07;2.42;;;1.92;;
84672;SDS011;74899;42.256;23.284;2024-01-15T01:26:33;1.13;;;1.13;;
84672;SDS011;74899;42.256;23.284;2024-01-15T01:28:59;1.52;;;1.00;;
84672;SDS011;74899;42.256;23.284;2024-01-15T01:33:56;1.80;;;1.67;;
84672;SDS011;74899;42.256;23.284;2024-01-15T01:36:22;5.47;;;3.13;;
84672;SDS011;74899;42.256;23.284;2024-01-15T01:38:48;2.42;;;2.08;;
84672;SDS011;74899;42.256;23.284;2024-01-15T01:41:15;2.35;;;2.25;;
84672;SDS011;74899;42.256;23.284;2024-01-15T01:43:42;1.42;;;1.42;;
84672;SDS011;74899;42.256;23.284;2024-01-15T01:46:09;1.95;;;1.33;;
84672;SDS011;74899;42.256;23.284;2024-01-15T01:48:35;0.88;;;0.88;;
84672;SDS011;74899;42.256;23.284;2024-01-15T01:51:02;0.60;;;0.60;;
84672;SDS011;74899;42.256;23.284;2024-01-15T01:53:30;1.23;;;1.23;;
84672;SDS011;74899;42.256;23.284;2024-01-15T01:55:59;1.48;;;1.38;;
84672;SDS011;74899;42.256;23.284;2024-01-15T01:58:26;1.08;;;0.65;;
84672;SDS011;74899;42.256;23.284;2024-01-15T02:00:54;1.27;;;1.17;;
84672;SDS011;74899;42.256;23.284;2024-01-15T02:03:22;1.20;;;1.20;;
84672;SDS011;74899;42.256;23.284;2024-01-15T02:05:48;1.08;;;1.08;;
84672;SDS011;74899;42.256;23.284;2024-01-15T02:08:15;5.90;;;1.42;;
84672;SDS011;74899;42.256;23.284;2024-01-15T02:10:42;1.23;;;1.17;;
84672;SDS011;74899;42.256;23.284;2024-01-15T02:13:09;1.60;;;1.50;;
84672;SDS011;74899;42.256;23.284;2024-01-15T02:15:35;3.72;;;1.95;;
84672;SDS011;74899;42.256;23.284;2024-01-15T02:18:02;1.50;;;1.40;;
84672;SDS011;74899;42.256;23.284;2024-01-15T02:20:31;3.17;;;2.88;;
84672;SDS011;74899;42.256;23.284;2024-01-15T02:23:11;2.33;;;1.65;;
84672;SDS011;74899;42.256;23.284;2024-01-15T02:25:42;2.95;;;2.75;;
84672;SDS011;74899;42.256;23.284;2024-01-15T02:28:10;4.28;;;1.65;;
84672;SDS011;74899;42.256;23.284;2024-01-15T02:30:37;2.97;;;2.63;;
84672;SDS011;74899;42.256;23.284;2024-01-15T02:33:05;2.60;;;2.10;;
84672;SDS011;74899;42.256;23.284;2024-01-15T02:35:32;4.93;;;3.92;;
84672;SDS011;74899;42.256;23.284;2024-01-15T02:37:59;5.28;;;3.13;;
84672;SDS011;74899;42.256;23.284;2024-01-15T02:40:26;3.40;;;2.97;;
84672;SDS011;74899;42.256;23.284;2024-01-15T02:42:52;3.03;;;2.42;;
84672;SDS011;74899;42.256;23.284;2024-01-15T02:45:19;2.20;;;2.00;;
84672;SDS011;74899;42.256;23.284;2024-01-15T02:47:46;1.95;;;1.75;;
84672;SDS011;74899;42.256;23.284;2024-01-15T02:50:12;2.08;;;1.98;;
84672;SDS011;74899;42.256;23.284;2024-01-15T02:52:38;2.30;;;2.20;;
84672;SDS011;74899;42.256;23.284;2024-01-15T02:55:05;1.10;;;1.10;;
84672;SDS011;74899;42.256;23.284;2024-01-15T02:57:32;1.98;;;0.80;;
84672;SDS011;74899;42.256;23.284;2024-01-15T02:59:58;2.40;;;2.20;;
84672;SDS011;74899;42.256;23.284;2024-01-15T03:02:25;2.58;;;2.47;;
84672;SDS011;74899;42.256;23.284;2024-01-15T03:04:51;2.13;;;2.03;;
84672;SDS011;74899;42.256;23.284;2024-01-15T03:07:18;1.58;;;1.48;;
84672;SDS011;74899;42.256;23.284;2024-01-15T03:09:44;1.02;;;1.02;;
84672;SDS011;74899;42.256;23.284;2024-01-15T03:12:10;2.88;;;2.67;;
84672;SDS011;74899;42.256;23.284;2024-01-15T03:14:36;1.17;;;1.13;;
84672;SDS011;74899;42.256;23.284;2024-01-15T03:17:02;0.95;;;0.95;;
84672;SDS011;74899;42.256;23.284;2024-01-15T03:19:29;0.95;;;0.95;;
84672;SDS011;74899;42.256;23.284;2024-01-15T03:21:56;2.35;;;1.17;;
84672;SDS011;74899;42.256;23.284;2024-01-15T03:24:23;1.60;;;1.60;;
84672;SDS011;74899;42.256;23.284;2024-01-15T03:26:49;1.08;;;1.00;;
84672;SDS011;74899;42.256;23.284;2024-01-15T03:29:17;3.03;;;1.23;;
84672;SDS011;74899;42.256;23.284;2024-01-15T03:31:43;1.50;;;1.17;;
84672;SDS011;74899;42.256;23.284;2024-01-15T03:34:09;0.77;;;0.77;;
84672;SDS011;74899;42.256;23.284;2024-01-15T03:36:37;1.38;;;1.33;;
84672;SDS011;74899;42.256;23.284;2024-01-15T03:39:05;1.92;;;1.80;;
84672;SDS011;74899;42.256;23.284;2024-01-15T03:41:31;1.50;;;1.50;;
84672;SDS011;74899;42.256;23.284;2024-01-15T03:43:58;2.50;;;1.55;;
84672;SDS011;74899;42.256;23.284;2024-01-15T03:46:24;2.63;;;2.00;;
84672;SDS011;74899;42.256;23.284;2024-01-15T03:48:50;4.38;;;1.23;;
84672;SDS011;74899;42.256;23.284;2024-01-15T03:51:20;1.63;;;1.60;;
84672;SDS011;74899;42.256;23.284;2024-01-15T03:53:46;1.65;;;1.33;;
84672;SDS011;74899;42.256;23.284;2024-01-15T03:56:14;1.05;;;1.05;;
84672;SDS011;74899;42.256;23.284;2024-01-15T03:58:45;0.68;;;0.68;;
84672;SDS011;74899;42.256;23.284;2024-01-15T04:01:12;7.45;;;0.85;;
84672;SDS011;74899;42.256;23.284;2024-01-15T04:03:38;1.10;;;1.10;;
84672;SDS011;74899;42.256;23.284;2024-01-15T04:06:06;1.70;;;1.60;;
84672;SDS011;74899;42.256;23.284;2024-01-15T04:08:32;1.95;;;1.08;;
84672;SDS011;74899;42.256;23.284;2024-01-15T04:10:58;2.15;;;1.67;;
84672;SDS011;74899;42.256;23.284;2024-01-15T04:13:24;2.65;;;1.10;;
84672;SDS011;74899;42.256;23.284;2024-01-15T04:15:50;1.48;;;1.38;;
84672;SDS011;74899;42.256;23.284;2024-01-15T04:18:19;1.05;;;0.95;;
84672;SDS011;74899;42.256;23.284;2024-01-15T04:20:48;3.35;;;2.35;;
84672;SDS011;74899;42.256;23.284;2024-01-15T04:23:14;3.88;;;3.08;;
84672;SDS011;74899;42.256;23.284;2024-01-15T04:25:41;106.20;;;32.60;;
84672;SDS011;74899;42.256;23.284;2024-01-15T04:28:12;8.00;;;5.20;;
84672;SDS011;74899;42.256;23.284;2024-01-15T04:30:40;6.78;;;6.15;;
84672;SDS011;74899;42.256;23.284;2024-01-15T04:33:08;4.80;;;4.40;;
84672;SDS011;74899;42.256;23.284;2024-01-15T04:35:35;13.15;;;7.80;;
84672;SDS011;74899;42.256;23.284;2024-01-15T04:38:03;6.40;;;5.05;;
84672;SDS011;74899;42.256;23.284;2024-01-15T04:40:30;5.30;;;4.82;;
84672;SDS011;74899;42.256;23.284;2024-01-15T04:42:56;9.95;;;7.60;;
84672;SDS011;74899;42.256;23.284;2024-01-15T04:45:23;17.80;;;9.40;;
84672;SDS011;74899;42.256;23.284;2024-01-15T04:47:54;14.00;;;8.90;;
84672;SDS011;74899;42.256;23.284;2024-01-15T04:50:21;17.10;;;9.00;;
84672;SDS011;74899;42.256;23.284;2024-01-15T04:52:47;3.20;;;3.08;;
84672;SDS011;74899;42.256;23.284;2024-01-15T04:55:13;2.22;;;2.13;;
84672;SDS011;74899;42.256;23.284;2024-01-15T04:57:40;4.70;;;2.88;;
84672;SDS011;74899;42.256;23.284;2024-01-15T05:00:06;3.58;;;3.38;;
84672;SDS011;74899;42.256;23.284;2024-01-15T05:02:33;6.30;;;5.75;;
84672;SDS011;74899;42.256;23.284;2024-01-15T05:04:58;14.45;;;7.57;;
84672;SDS011;74899;42.256;23.284;2024-01-15T05:07:24;17.08;;;9.25;;
84672;SDS011;74899;42.256;23.284;2024-01-15T05:09:50;9.23;;;5.18;;
84672;SDS011;74899;42.256;23.284;2024-01-15T05:12:17;6.25;;;2.40;;
84672;SDS011;74899;42.256;23.284;2024-01-15T05:14:43;12.65;;;7.10;;
84672;SDS011;74899;42.256;23.284;2024-01-15T05:17:10;3.13;;;2.85;;
84672;SDS011;74899;42.256;23.284;2024-01-15T05:19:38;4.50;;;2.50;;
84672;SDS011;74899;42.256;23.284;2024-01-15T05:22:04;1.15;;;1.15;;
84672;SDS011;74899;42.256;23.284;2024-01-15T05:24:30;4.07;;;3.33;;
84672;SDS011;74899;42.256;23.284;2024-01-15T05:26:56;8.68;;;5.97;;
84672;SDS011;74899;42.256;23.284;2024-01-15T05:29:25;2.75;;;2.55;;
84672;SDS011;74899;42.256;23.284;2024-01-15T05:31:52;5.32;;;3.03;;
84672;SDS011;74899;42.256;23.284;2024-01-15T05:34:18;2.50;;;2.35;;
84672;SDS011;74899;42.256;23.284;2024-01-15T05:36:46;37.15;;;20.95;;
84672;SDS011;74899;42.256;23.284;2024-01-15T05:39:13;2.72;;;2.33;;
84672;SDS011;74899;42.256;23.284;2024-01-15T05:41:42;8.60;;;7.25;;
84672;SDS011;74899;42.256;23.284;2024-01-15T05:44:09;15.68;;;11.20;;
84672;SDS011;74899;42.256;23.284;2024-01-15T05:46:35;66.43;;;27.88;;
84672;SDS011;74899;42.256;23.284;2024-01-15T05:49:03;47.83;;;22.77;;
84672;SDS011;74899;42.256;23.284;2024-01-15T05:51:30;64.22;;;24.52;;
84672;SDS011;74899;42.256;23.284;2024-01-15T05:53:57;24.70;;;15.07;;
84672;SDS011;74899;42.256;23.284;2024-01-15T05:56:23;7.63;;;5.10;;
84672;SDS011;74899;42.256;23.284;2024-01-15T05:58:50;59.30;;;22.35;;
84672;SDS011;74899;42.256;23.284;2024-01-15T06:01:18;31.27;;;13.23;;
84672;SDS011;74899;42.256;23.284;2024-01-15T06:03:44;3.05;;;2.80;;
84672;SDS011;74899;42.256;23.284;2024-01-15T06:06:12;8.18;;;5.85;;
84672;SDS011;74899;42.256;23.284;2024-01-15T06:08:38;5.55;;;4.25;;
84672;SDS011;74899;42.256;23.284;2024-01-15T06:11:06;12.55;;;6.90;;
84672;SDS011;74899;42.256;23.284;2024-01-15T06:13:33;21.70;;;15.40;;
84672;SDS011;74899;42.256;23.284;2024-01-15T06:15:58;29.52;;;16.40;;
84672;SDS011;74899;42.256;23.284;2024-01-15T06:18:24;64.93;;;28.73;;
84672;SDS011;74899;42.256;23.284;2024-01-15T06:20:51;48.00;;;29.17;;
84672;SDS011;74899;42.256;23.284;2024-01-15T06:23:19;17.20;;;13.65;;
84672;SDS011;74899;42.256;23.284;2024-01-15T06:25:46;21.73;;;17.35;;
84672;SDS011;74899;42.256;23.284;2024-01-15T06:28:11;15.40;;;11.30;;
84672;SDS011;74899;42.256;23.284;2024-01-15T06:30:37;29.25;;;18.92;;
84672;SDS011;74899;42.256;23.284;2024-01-15T06:33:05;58.58;;;35.47;;
84672;SDS011;74899;42.256;23.284;2024-01-15T06:35:31;15.15;;;9.82;;
84672;SDS011;74899;42.256;23.284;2024-01-15T06:37:59;16.95;;;8.40;;
84672;SDS011;74899;42.256;23.284;2024-01-15T06:40:25;16.70;;;9.98;;
84672;SDS011;74899;42.256;23.284;2024-01-15T06:42:52;32.22;;;16.75;;
84672;SDS011;74899;42.256;23.284;2024-01-15T06:45:23;30.05;;;15.18;;
84672;SDS011;74899;42.256;23.284;2024-01-15T06:47:50;12.43;;;8.73;;
84672;SDS011;74899;42.256;23.284;2024-01-15T06:50:20;54.80;;;24.73;;
84672;SDS011;74899;42.256;23.284;2024-01-15T06:52:46;46.78;;;24.42;;
84672;SDS011;74899;42.256;23.284;2024-01-15T06:55:12;37.70;;;19.08;;
84672;SDS011;74899;42.256;23.284;2024-01-15T06:57:38;61.10;;;27.08;;
84672;SDS011;74899;42.256;23.284;2024-01-15T07:00:05;111.28;;;49.08;;
84672;SDS011;74899;42.256;23.284;2024-01-15T07:02:33;82.38;;;41.20;;
84672;SDS011;74899;42.256;23.284;2024-01-15T07:04:58;68.75;;;36.05;;
84672;SDS011;74899;42.256;23.284;2024-01-15T07:07:24;69.07;;;35.78;;
84672;SDS011;74899;42.256;23.284;2024-01-15T07:09:55;129.50;;;81.18;;
84672;SDS011;74899;42.256;23.284;2024-01-15T07:12:22;83.88;;;40.67;;
84672;SDS011;74899;42.256;23.284;2024-01-15T07:14:50;92.75;;;41.40;;
84672;SDS011;74899;42.256;23.284;2024-01-15T07:17:17;38.85;;;21.65;;
84672;SDS011;74899;42.256;23.284;2024-01-15T07:19:44;54.08;;;28.75;;
84672;SDS011;74899;42.256;23.284;2024-01-15T07:22:10;73.90;;;30.40;;
84672;SDS011;74899;42.256;23.284;2024-01-15T07:24:36;58.47;;;28.38;;
84672;SDS011;74899;42.256;23.284;2024-01-15T07:27:03;63.03;;;30.50;;
84672;SDS011;74899;42.256;23.284;2024-01-15T07:29:30;57.97;;;28.73;;
84672;SDS011;74899;42.256;23.284;2024-01-15T07:32:01;43.72;;;22.52;;
84672;SDS011;74899;42.256;23.284;2024-01-15T07:34:27;16.90;;;8.40;;
84672;SDS011;74899;42.256;23.284;2024-01-15T07:36:56;5.13;;;4.55;;
84672;SDS011;74899;42.256;23.284;2024-01-15T07:39:23;27.65;;;14.23;;
84672;SDS011;74899;42.256;23.284;2024-01-15T07:41:50;24.35;;;13.13;;
84672;SDS011;74899;42.256;23.284;2024-01-15T07:44:19;24.48;;;15.70;;
84672;SDS011;74899;42.256;23.284;2024-01-15T07:46:46;10.25;;;6.78;;
84672;SDS011;74899;42.256;23.284;2024-01-15T07:49:13;59.17;;;21.00;;
84672;SDS011;74899;42.256;23.284;2024-01-15T07:51:42;42.17;;;20.67;;
84672;SDS011;74899;42.256;23.284;2024-01-15T07:54:09;18.33;;;12.02;;
84672;SDS011;74899;42.256;23.284;2024-01-15T07:56:56;16.20;;;8.75;;
84672;SDS011;74899;42.256;23.284;2024-01-15T07:59:25;44.28;;;22.85;;
84672;SDS011;74899;42.256;23.284;2024-01-15T08:01:53;46.83;;;24.52;;
84672;SDS011;74899;42.256;23.284;2024-01-15T08:04:20;27.60;;;16.52;;
84672;SDS011;74899;42.256;23.284;2024-01-15T08:06:47;20.80;;;13.13;;
84672;SDS011;74899;42.256;23.284;2024-01-15T08:09:13;76.05;;;33.10;;
84672;SDS011;74899;42.256;23.284;2024-01-15T08:11:40;48.78;;;21.50;;
84672;SDS011;74899;42.256;23.284;2024-01-15T08:14:08;52.95;;;25.13;;
84672;SDS011;74899;42.256;23.284;2024-01-15T08:16:35;51.17;;;24.02;;
84672;SDS011;74899;42.256;23.284;2024-01-15T08:19:03;29.08;;;15.82;;
84672;SDS011;74899;42.256;23.284;2024-01-15T08:21:32;25.67;;;12.75;;
84672;SDS011;74899;42.256;23.284;2024-01-15T08:24:02;10.63;;;7.55;;
84672;SDS011;74899;42.256;23.284;2024-01-15T08:26:31;71.97;;;28.17;;
84672;SDS011;74899;42.256;23.284;2024-01-15T08:28:58;40.65;;;17.17;;
84672;SDS011;74899;42.256;23.284;2024-01-15T08:31:24;65.13;;;27.85;;
84672;SDS011;74899;42.256;23.284;2024-01-15T08:33:50;59.65;;;27.90;;
84672;SDS011;74899;42.256;23.284;2024-01-15T08:36:23;15.95;;;9.93;;
84672;SDS011;74899;42.256;23.284;2024-01-15T08:38:49;8.88;;;6.68;;
84672;SDS011;74899;42.256;23.284;2024-01-15T08:41:16;50.95;;;24.80;;
84672;SDS011;74899;42.256;23.284;2024-01-15T08:43:49;31.42;;;15.63;;
84672;SDS011;74899;42.256;23.284;2024-01-15T08:46:17;24.25;;;12.90;;
84672;SDS011;74899;42.256;23.284;2024-01-15T08:48:44;11.73;;;6.70;;
84672;SDS011;74899;42.256;23.284;2024-01-15T08:51:10;23.75;;;11.90;;
84672;SDS011;74899;42.256;23.284;2024-01-15T08:53:36;63.03;;;26.35;;
84672;SDS011;74899;42.256;23.284;2024-01-15T08:56:04;27.27;;;16.45;;
84672;SDS011;74899;42.256;23.284;2024-01-15T08:58:31;52.40;;;25.17;;
84672;SDS011;74899;42.256;23.284;2024-01-15T09:00:58;47.88;;;20.63;;
84672;SDS011;74899;42.256;23.284;2024-01-15T09:03:23;61.00;;;26.92;;
84672;SDS011;74899;42.256;23.284;2024-01-15T09:05:52;52.30;;;21.88;;
84672;SDS011;74899;42.256;23.284;2024-01-15T09:08:22;23.30;;;14.40;;
84672;SDS011;74899;42.256;23.284;2024-01-15T09:10:48;50.10;;;21.42;;
84672;SDS011;74899;42.256;23.284;2024-01-15T09:13:18;84.03;;;36.35;;
84672;SDS011;74899;42.256;23.284;2024-01-15T09:15:44;57.53;;;26.52;;
84672;SDS011;74899;42.256;23.284;2024-01-15T09:18:10;61.53;;;29.00;;
84672;SDS011;74899;42.256;23.284;2024-01-15T09:20:36;48.50;;;25.52;;
84672;SDS011;74899;42.256;23.284;2024-01-15T09:23:04;51.67;;;26.80;;
84672;SDS011;74899;42.256;23.284;2024-01-15T09:25:31;64.68;;;31.48;;
84672;SDS011;74899;42.256;23.284;2024-01-15T09:27:58;55.30;;;29.25;;
84672;SDS011;74899;42.256;23.284;2024-01-15T09:30:24;76.65;;;33.33;;
84672;SDS011;74899;42.256;23.284;2024-01-15T09:32:50;43.45;;;20.20;;
84672;SDS011;74899;42.256;23.284;2024-01-15T09:35:17;35.13;;;15.93;;
84672;SDS011;74899;42.256;23.284;2024-01-15T09:37:45;15.93;;;9.95;;
84672;SDS011;74899;42.256;23.284;2024-01-15T09:40:17;15.30;;;8.77;;
84672;SDS011;74899;42.256;23.284;2024-01-15T09:42:46;16.15;;;10.40;;
84672;SDS011;74899;42.256;23.284;2024-01-15T09:45:13;26.23;;;16.10;;
84672;SDS011;74899;42.256;23.284;2024-01-15T09:47:40;32.92;;;17.23;;
84672;SDS011;74899;42.256;23.284;2024-01-15T09:50:07;31.35;;;17.00;;
84672;SDS011;74899;42.256;23.284;2024-01-15T09:52:34;27.85;;;15.02;;
84672;SDS011;74899;42.256;23.284;2024-01-15T09:55:02;20.98;;;12.60;;
84672;SDS011;74899;42.256;23.284;2024-01-15T09:57:31;27.80;;;14.32;;
84672;SDS011;74899;42.256;23.284;2024-01-15T09:59:58;24.67;;;12.90;;
84672;SDS011;74899;42.256;23.284;2024-01-15T10:02:30;14.13;;;9.73;;
84672;SDS011;74899;42.256;23.284;2024-01-15T10:04:58;30.63;;;17.00;;
84672;SDS011;74899;42.256;23.284;2024-01-15T10:07:25;33.05;;;17.08;;
84672;SDS011;74899;42.256;23.284;2024-01-15T10:09:53;20.90;;;11.73;;
84672;SDS011;74899;42.256;23.284;2024-01-15T10:12:21;19.90;;;11.38;;
84672;SDS011;74899;42.256;23.284;2024-01-15T10:14:48;15.00;;;9.00;;
84672;SDS011;74899;42.256;23.284;2024-01-15T10:17:16;9.10;;;7.25;;
84672;SDS011;74899;42.256;23.284;2024-01-15T10:19:45;13.82;;;7.85;;
84672;SDS011;74899;42.256;23.284;2024-01-15T10:22:13;7.75;;;6.00;;
84672;SDS011;74899;42.256;23.284;2024-01-15T10:24:41;9.23;;;6.32;;
84672;SDS011;74899;42.256;23.284;2024-01-15T10:27:08;16.23;;;9.65;;
84672;SDS011;74899;42.256;23.284;2024-01-15T10:29:35;9.73;;;6.22;;
84672;SDS011;74899;42.256;23.284;2024-01-15T10:32:02;10.02;;;6.88;;
84672;SDS011;74899;42.256;23.284;2024-01-15T10:34:32;8.52;;;5.20;;
84672;SDS011;74899;42.256;23.284;2024-01-15T10:36:58;15.45;;;10.32;;
84672;SDS011;74899;42.256;23.284;2024-01-15T10:39:24;65.38;;;29.65;;
84672;SDS011;74899;42.256;23.284;2024-01-15T10:41:51;13.18;;;8.20;;
84672;SDS011;74899;42.256;23.284;2024-01-15T10:44:18;61.17;;;32.22;;
84672;SDS011;74899;42.256;23.284;2024-01-15T10:46:44;12.25;;;7.47;;
84672;SDS011;74899;42.256;23.284;2024-01-15T10:49:11;2.50;;;2.30;;
84672;SDS011;74899;42.256;23.284;2024-01-15T10:51:37;7.80;;;5.43;;
84672;SDS011;74899;42.256;23.284;2024-01-15T10:54:07;2.50;;;2.30;;
84672;SDS011;74899;42.256;23.284;2024-01-15T10:56:36;1.13;;;1.13;;
84672;SDS011;74899;42.256;23.284;2024-01-15T10:59:04;7.35;;;5.30;;
84672;SDS011;74899;42.256;23.284;2024-01-15T11:01:30;4.80;;;3.15;;
84672;SDS011;74899;42.256;23.284;2024-01-15T11:03:56;1.77;;;1.67;;
84672;SDS011;74899;42.256;23.284;2024-01-15T11:06:23;1.48;;;1.38;;
84672;SDS011;74899;42.256;23.284;2024-01-15T11:08:50;1.40;;;1.30;;
84672;SDS011;74899;42.256;23.284;2024-01-15T11:11:18;1.02;;;1.02;;
84672;SDS011;74899;42.256;23.284;2024-01-15T11:13:49;1.08;;;1.08;;
84672;SDS011;74899;42.256;23.284;2024-01-15T11:16:18;0.75;;;0.75;;
84672;SDS011;74899;42.256;23.284;2024-01-15T11:19:02;0.90;;;0.90;;
84672;SDS011;74899;42.256;23.284;2024-01-15T11:21:33;1.27;;;1.27;;
84672;SDS011;74899;42.256;23.284;2024-01-15T11:24:07;2.28;;;1.95;;
84672;SDS011;74899;42.256;23.284;2024-01-15T11:26:46;1.05;;;1.05;;
84672;SDS011;74899;42.256;23.284;2024-01-15T11:29:29;1.52;;;1.42;;
84672;SDS011;74899;42.256;23.284;2024-01-15T11:31:58;1.42;;;1.33;;
84672;SDS011;74899;42.256;23.284;2024-01-15T11:34:59;1.02;;;1.02;;
84672;SDS011;74899;42.256;23.284;2024-01-15T11:38:12;1.27;;;1.20;;
84672;SDS011;74899;42.256;23.284;2024-01-15T11:43:02;2.35;;;2.17;;
84672;SDS011;74899;42.256;23.284;2024-01-15T11:45:30;2.63;;;0.90;;
84672;SDS011;74899;42.256;23.284;2024-01-15T11:50:50;0.88;;;0.88;;
84672;SDS011;74899;42.256;23.284;2024-01-15T11:56:17;1.08;;;1.08;;
84672;SDS011;74899;42.256;23.284;2024-01-15T11:58:46;1.13;;;1.13;;
84672;SDS011;74899;42.256;23.284;2024-01-15T12:01:13;1.90;;;1.80;;
84672;SDS011;74899;42.256;23.284;2024-01-15T12:03:40;2.83;;;2.63;;
84672;SDS011;74899;42.256;23.284;2024-01-15T12:06:12;1.30;;;1.30;;
84672;SDS011;74899;42.256;23.284;2024-01-15T12:08:41;25.13;;;20.70;;
84672;SDS011;74899;42.256;23.284;2024-01-15T12:11:10;5.20;;;4.72;;
84672;SDS011;74899;42.256;23.284;2024-01-15T12:13:40;3.17;;;2.97;;
84672;SDS011;74899;42.256;23.284;2024-01-15T12:16:06;2.63;;;2.42;;
84672;SDS011;74899;42.256;23.284;2024-01-15T12:18:32;5.32;;;4.25;;
84672;SDS011;74899;42.256;23.284;2024-01-15T12:20:59;17.25;;;6.65;;
84672;SDS011;74899;42.256;23.284;2024-01-15T12:23:26;19.00;;;6.85;;
84672;SDS011;74899;42.256;23.284;2024-01-15T12:25:53;103.25;;;49.47;;
84672;SDS011;74899;42.256;23.284;2024-01-15T12:28:20;16.90;;;12.48;;
84672;SDS011;74899;42.256;23.284;2024-01-15T12:30:47;9.30;;;8.27;;
84672;SDS011;74899;42.256;23.284;2024-01-15T12:33:18;13.65;;;8.90;;
84672;SDS011;74899;42.256;23.284;2024-01-15T12:35:46;4.10;;;3.80;;
84672;SDS011;74899;42.256;23.284;2024-01-15T12:38:12;8.85;;;7.95;;
84672;SDS011;74899;42.256;23.284;2024-01-15T12:40:39;5.45;;;3.58;;
84672;SDS011;74899;42.256;23.284;2024-01-15T12:43:09;4.70;;;2.05;;
84672;SDS011;74899;42.256;23.284;2024-01-15T12:45:36;7.38;;;5.25;;
84672;SDS011;74899;42.256;23.284;2024-01-15T12:48:03;8.90;;;5.65;;
84672;SDS011;74899;42.256;23.284;2024-01-15T12:50:33;6.50;;;5.20;;
84672;SDS011;74899;42.256;23.284;2024-01-15T12:52:59;82.00;;;42.70;;
84672;SDS011;74899;42.256;23.284;2024-01-15T12:55:27;34.40;;;15.90;;
84672;SDS011;74899;42.256;23.284;2024-01-15T12:57:54;13.20;;;9.23;;
84672;SDS011;74899;42.256;23.284;2024-01-15T13:00:27;5.95;;;5.43;;
84672;SDS011;74899;42.256;23.284;2024-01-15T13:02:57;57.28;;;19.60;;
84672;SDS011;74899;42.256;23.284;2024-01-15T13:05:23;53.08;;;21.08;;
84672;SDS011;74899;42.256;23.284;2024-01-15T13:07:51;12.80;;;7.38;;
84672;SDS011;74899;42.256;23.284;2024-01-15T13:10:18;34.88;;;16.10;;
84672;SDS011;74899;42.256;23.284;2024-01-15T13:12:45;86.95;;;30.52;;
84672;SDS011;74899;42.256;23.284;2024-01-15T13:15:11;16.45;;;8.20;;
84672;SDS011;74899;42.256;23.284;2024-01-15T13:17:37;17.73;;;10.25;;
84672;SDS011;74899;42.256;23.284;2024-01-15T13:20:05;15.55;;;8.98;;
84672;SDS011;74899;42.256;23.284;2024-01-15T13:22:32;37.80;;;21.27;;
84672;SDS011;74899;42.256;23.284;2024-01-15T13:24:58;56.50;;;35.55;;
84672;SDS011;74899;42.256;23.284;2024-01-15T13:27:24;27.17;;;16.35;;
84672;SDS011;74899;42.256;23.284;2024-01-15T13:29:53;74.05;;;45.08;;
84672;SDS011;74899;42.256;23.284;2024-01-15T13:32:28;36.83;;;18.13;;
84672;SDS011;74899;42.256;23.284;2024-01-15T13:34:57;17.13;;;5.40;;
84672;SDS011;74899;42.256;23.284;2024-01-15T13:37:24;32.63;;;15.93;;
84672;SDS011;74899;42.256;23.284;2024-01-15T13:39:51;17.00;;;9.77;;
84672;SDS011;74899;42.256;23.284;2024-01-15T13:42:18;11.70;;;6.72;;
84672;SDS011;74899;42.256;23.284;2024-01-15T13:44:47;8.48;;;5.57;;
84672;SDS011;74899;42.256;23.284;2024-01-15T13:47:13;69.80;;;28.25;;
84672;SDS011;74899;42.256;23.284;2024-01-15T13:49:41;29.67;;;14.40;;
84672;SDS011;74899;42.256;23.284;2024-01-15T13:52:06;11.63;;;7.88;;
84672;SDS011;74899;42.256;23.284;2024-01-15T13:54:33;55.45;;;19.23;;
84672;SDS011;74899;42.256;23.284;2024-01-15T13:56:59;27.10;;;12.70;;
84672;SDS011;74899;42.256;23.284;2024-01-15T13:59:25;8.30;;;6.53;;
84672;SDS011;74899;42.256;23.284;2024-01-15T14:01:52;5.93;;;5.22;;
84672;SDS011;74899;42.256;23.284;2024-01-15T14:04:18;4.15;;;3.80;;
84672;SDS011;74899;42.256;23.284;2024-01-15T14:06:45;3.67;;;3.40;;
84672;SDS011;74899;42.256;23.284;2024-01-15T14:09:13;4.75;;;4.32;;
84672;SDS011;74899;42.256;23.284;2024-01-15T14:11:40;7.70;;;5.78;;
84672;SDS011;74899;42.256;23.284;2024-01-15T14:14:06;19.75;;;10.82;;
84672;SDS011;74899;42.256;23.284;2024-01-15T14:16:34;6.13;;;4.60;;
84672;SDS011;74899;42.256;23.284;2024-01-15T14:19:00;3.67;;;3.38;;
84672;SDS011;74899;42.256;23.284;2024-01-15T14:21:28;11.45;;;7.57;;
84672;SDS011;74899;42.256;23.284;2024-01-15T14:23:55;4.03;;;3.72;;
84672;SDS011;74899;42.256;23.284;2024-01-15T14:26:21;2.95;;;2.75;;
84672;SDS011;74899;42.256;23.284;2024-01-15T14:28:47;7.85;;;5.43;;
84672;SDS011;74899;42.256;23.284;2024-01-15T14:31:14;10.10;;;6.00;;
84672;SDS011;74899;42.256;23.284;2024-01-15T14:33:41;14.98;;;10.00;;
84672;SDS011;74899;42.256;23.284;2024-01-15T14:36:08;29.45;;;17.73;;